sensor_id;sensor_type;location;lat;lon;timestamp;P1;durP1;ratioP1;P2;durP2;ratioP2
52468;SDS011;38381;53.688;10.776;2023-05-10T00:03:27;4.32;;;3.10;;
52468;SDS011;38381;53.688;10.776;2023-05-10T00:08:27;4.22;;;3.25;;
52468;SDS011;38381;53.688;10.776;2023-05-10T00:13:28;3.47;;;3.00;;
52468;SDS011;38381;53.688;10.776;2023-05-10T00:18:28;5.63;;;3.95;;
52468;SDS011;38381;53.688;10.776;2023-05-10T00:23:29;6.80;;;3.50;;
52468;SDS011;38381;53.688;10.776;2023-05-10T00:28:29;4.90;;;2.93;;
52468;SDS011;38381;53.688;10.776;2023-05-10T00:33:29;7.38;;;4.18;;
52468;SDS011;38381;53.688;10.776;2023-05-10T00:38:30;4.75;;;2.95;;
52468;SDS011;38381;53.688;10.776;2023-05-10T00:43:31;4.32;;;3.45;;
52468;SDS011;38381;53.688;10.776;2023-05-10T00:48:31;7.23;;;3.63;;
52468;SDS011;38381;53.688;10.776;2023-05-10T00:53:32;5.35;;;3.35;;
52468;SDS011;38381;53.688;10.776;2023-05-10T00:58:32;5.85;;;3.80;;
52468;SDS011;38381;53.688;10.776;2023-05-10T01:03:34;3.60;;;3.30;;
52468;SDS011;38381;53.688;10.776;2023-05-10T01:08:36;6.37;;;3.90;;
52468;SDS011;38381;53.688;10.776;2023-05-10T01:13:37;4.43;;;3.75;;
52468;SDS011;38381;53.688;10.776;2023-05-10T01:18:40;4.00;;;3.28;;
52468;SDS011;38381;53.688;10.776;2023-05-10T01:35:15;4.38;;;3.97;;
52468;SDS011;38381;53.688;10.776;2023-05-10T01:45:41;6.13;;;4.28;;
52468;SDS011;38381;53.688;10.776;2023-05-10T01:50:59;4.18;;;3.63;;
52468;SDS011;38381;53.688;10.776;2023-05-10T01:55:59;3.10;;;2.80;;
52468;SDS011;38381;53.688;10.776;2023-05-10T02:01:03;5.90;;;3.40;;
52468;SDS011;38381;53.688;10.776;2023-05-10T02:06:05;6.15;;;4.28;;
52468;SDS011;38381;53.688;10.776;2023-05-10T02:11:06;4.37;;;3.90;;
52468;SDS011;38381;53.688;10.776;2023-05-10T02:16:08;4.28;;;3.70;;
52468;SDS011;38381;53.688;10.776;2023-05-10T02:21:09;4.22;;;3.38;;
52468;SDS011;38381;53.688;10.776;2023-05-10T02:26:10;4.45;;;4.05;;
52468;SDS011;38381;53.688;10.776;2023-05-10T02:31:13;4.70;;;3.38;;
52468;SDS011;38381;53.688;10.776;2023-05-10T02:36:14;4.95;;;3.55;;
52468;SDS011;38381;53.688;10.776;2023-05-10T02:41:16;3.88;;;3.47;;
52468;SDS011;38381;53.688;10.776;2023-05-10T02:46:18;6.10;;;3.60;;
52468;SDS011;38381;53.688;10.776;2023-05-10T02:51:19;7.43;;;4.20;;
52468;SDS011;38381;53.688;10.776;2023-05-10T02:56:25;4.05;;;3.67;;
52468;SDS011;38381;53.688;10.776;2023-05-10T03:01:32;3.78;;;3.38;;
52468;SDS011;38381;53.688;10.776;2023-05-10T03:06:32;4.45;;;3.88;;
52468;SDS011;38381;53.688;10.776;2023-05-10T03:22:37;4.85;;;4.38;;
52468;SDS011;38381;53.688;10.776;2023-05-10T03:27:47;4.30;;;3.90;;
52468;SDS011;38381;53.688;10.776;2023-05-10T03:32:47;4.22;;;3.53;;
52468;SDS011;38381;53.688;10.776;2023-05-10T03:37:48;4.60;;;4.20;;
52468;SDS011;38381;53.688;10.776;2023-05-10T03:42:48;7.47;;;5.07;;
52468;SDS011;38381;53.688;10.776;2023-05-10T03:47:49;4.93;;;3.70;;
52468;SDS011;38381;53.688;10.776;2023-05-10T03:52:49;6.28;;;4.85;;
52468;SDS011;38381;53.688;10.776;2023-05-10T03:57:50;6.57;;;3.80;;
52468;SDS011;38381;53.688;10.776;2023-05-10T04:02:50;4.68;;;4.28;;
52468;SDS011;38381;53.688;10.776;2023-05-10T04:07:51;4.78;;;4.38;;
52468;SDS011;38381;53.688;10.776;2023-05-10T04:12:51;4.03;;;3.63;;
52468;SDS011;38381;53.688;10.776;2023-05-10T04:17:52;4.47;;;4.05;;
52468;SDS011;38381;53.688;10.776;2023-05-10T04:22:53;4.55;;;4.03;;
52468;SDS011;38381;53.688;10.776;2023-05-10T04:27:54;4.97;;;4.50;;
52468;SDS011;38381;53.688;10.776;2023-05-10T04:32:55;4.70;;;4.28;;
52468;SDS011;38381;53.688;10.776;2023-05-10T04:37:58;5.53;;;4.38;;
52468;SDS011;38381;53.688;10.776;2023-05-10T04:42:59;5.15;;;4.72;;
52468;SDS011;38381;53.688;10.776;2023-05-10T04:48:00;5.10;;;3.80;;
52468;SDS011;38381;53.688;10.776;2023-05-10T04:53:00;5.07;;;4.50;;
52468;SDS011;38381;53.688;10.776;2023-05-10T04:58:00;5.70;;;4.40;;
52468;SDS011;38381;53.688;10.776;2023-05-10T05:03:01;5.15;;;4.50;;
52468;SDS011;38381;53.688;10.776;2023-05-10T05:08:01;5.50;;;4.82;;
52468;SDS011;38381;53.688;10.776;2023-05-10T05:13:02;4.72;;;4.15;;
52468;SDS011;38381;53.688;10.776;2023-05-10T05:18:02;4.15;;;3.80;;
52468;SDS011;38381;53.688;10.776;2023-05-10T05:23:03;5.15;;;4.10;;
52468;SDS011;38381;53.688;10.776;2023-05-10T05:28:04;6.88;;;4.78;;
52468;SDS011;38381;53.688;10.776;2023-05-10T05:33:04;5.13;;;4.25;;
52468;SDS011;38381;53.688;10.776;2023-05-10T05:38:05;4.35;;;3.95;;
52468;SDS011;38381;53.688;10.776;2023-05-10T05:43:06;5.70;;;4.60;;
52468;SDS011;38381;53.688;10.776;2023-05-10T05:48:06;4.55;;;3.88;;
52468;SDS011;38381;53.688;10.776;2023-05-10T05:53:07;6.38;;;4.43;;
52468;SDS011;38381;53.688;10.776;2023-05-10T05:58:08;4.57;;;4.17;;
52468;SDS011;38381;53.688;10.776;2023-05-10T06:03:09;6.47;;;4.10;;
52468;SDS011;38381;53.688;10.776;2023-05-10T06:08:13;6.25;;;4.40;;
52468;SDS011;38381;53.688;10.776;2023-05-10T06:13:30;7.65;;;4.30;;
52468;SDS011;38381;53.688;10.776;2023-05-10T06:18:32;5.28;;;4.05;;
52468;SDS011;38381;53.688;10.776;2023-05-10T06:23:32;6.97;;;4.75;;
52468;SDS011;38381;53.688;10.776;2023-05-10T06:28:33;5.47;;;4.25;;
52468;SDS011;38381;53.688;10.776;2023-05-10T06:33:33;3.65;;;3.35;;
52468;SDS011;38381;53.688;10.776;2023-05-10T06:38:34;4.47;;;3.92;;
52468;SDS011;38381;53.688;10.776;2023-05-10T06:43:35;4.05;;;3.65;;
52468;SDS011;38381;53.688;10.776;2023-05-10T06:48:35;5.75;;;4.13;;
52468;SDS011;38381;53.688;10.776;2023-05-10T06:53:36;5.63;;;3.97;;
52468;SDS011;38381;53.688;10.776;2023-05-10T06:58:36;4.05;;;3.45;;
52468;SDS011;38381;53.688;10.776;2023-05-10T07:03:38;4.63;;;3.90;;
52468;SDS011;38381;53.688;10.776;2023-05-10T07:08:38;3.80;;;3.50;;
52468;SDS011;38381;53.688;10.776;2023-05-10T07:13:39;4.47;;;4.07;;
52468;SDS011;38381;53.688;10.776;2023-05-10T07:18:41;4.43;;;3.92;;
52468;SDS011;38381;53.688;10.776;2023-05-10T07:23:41;5.23;;;3.50;;
52468;SDS011;38381;53.688;10.776;2023-05-10T07:28:42;3.60;;;3.22;;
52468;SDS011;38381;53.688;10.776;2023-05-10T07:33:42;4.50;;;3.70;;
52468;SDS011;38381;53.688;10.776;2023-05-10T07:38:43;4.07;;;3.67;;
52468;SDS011;38381;53.688;10.776;2023-05-10T07:43:43;4.13;;;3.72;;
52468;SDS011;38381;53.688;10.776;2023-05-10T07:48:44;3.88;;;3.47;;
52468;SDS011;38381;53.688;10.776;2023-05-10T07:53:44;4.82;;;3.53;;
52468;SDS011;38381;53.688;10.776;2023-05-10T07:58:45;8.85;;;4.18;;
52468;SDS011;38381;53.688;10.776;2023-05-10T08:03:45;3.83;;;3.40;;
52468;SDS011;38381;53.688;10.776;2023-05-10T08:08:46;4.68;;;4.07;;
52468;SDS011;38381;53.688;10.776;2023-05-10T08:13:50;5.35;;;3.72;;
52468;SDS011;38381;53.688;10.776;2023-05-10T08:18:51;6.03;;;3.63;;
52468;SDS011;38381;53.688;10.776;2023-05-10T08:23:51;4.05;;;3.25;;
52468;SDS011;38381;53.688;10.776;2023-05-10T08:28:52;4.95;;;3.70;;
52468;SDS011;38381;53.688;10.776;2023-05-10T08:33:53;4.60;;;3.63;;
52468;SDS011;38381;53.688;10.776;2023-05-10T08:38:53;3.90;;;3.25;;
52468;SDS011;38381;53.688;10.776;2023-05-10T08:43:54;4.55;;;3.80;;
52468;SDS011;38381;53.688;10.776;2023-05-10T08:48:55;3.60;;;3.30;;
52468;SDS011;38381;53.688;10.776;2023-05-10T08:53:58;4.00;;;3.30;;
52468;SDS011;38381;53.688;10.776;2023-05-10T08:58:59;3.83;;;3.30;;
52468;SDS011;38381;53.688;10.776;2023-05-10T09:04:00;4.60;;;3.90;;
52468;SDS011;38381;53.688;10.776;2023-05-10T09:09:01;4.85;;;3.90;;
52468;SDS011;38381;53.688;10.776;2023-05-10T09:14:01;3.75;;;3.25;;
52468;SDS011;38381;53.688;10.776;2023-05-10T09:19:02;7.45;;;4.25;;
52468;SDS011;38381;53.688;10.776;2023-05-10T09:24:03;4.00;;;3.10;;
52468;SDS011;38381;53.688;10.776;2023-05-10T09:29:05;5.05;;;2.97;;
52468;SDS011;38381;53.688;10.776;2023-05-10T09:34:06;4.23;;;3.23;;
52468;SDS011;38381;53.688;10.776;2023-05-10T09:39:07;5.32;;;3.63;;
52468;SDS011;38381;53.688;10.776;2023-05-10T09:44:07;4.53;;;4.07;;
52468;SDS011;38381;53.688;10.776;2023-05-10T09:49:08;4.10;;;3.70;;
52468;SDS011;38381;53.688;10.776;2023-05-10T09:54:12;5.47;;;4.07;;
52468;SDS011;38381;53.688;10.776;2023-05-10T09:59:14;5.13;;;3.83;;
52468;SDS011;38381;53.688;10.776;2023-05-10T10:04:15;4.50;;;4.00;;
52468;SDS011;38381;53.688;10.776;2023-05-10T10:09:16;3.95;;;3.28;;
52468;SDS011;38381;53.688;10.776;2023-05-10T10:19:19;4.03;;;3.63;;
52468;SDS011;38381;53.688;10.776;2023-05-10T10:24:22;3.90;;;3.55;;
52468;SDS011;38381;53.688;10.776;2023-05-10T10:34:32;5.55;;;3.17;;
52468;SDS011;38381;53.688;10.776;2023-05-10T10:39:33;5.18;;;4.25;;
52468;SDS011;38381;53.688;10.776;2023-05-10T10:44:36;4.40;;;3.63;;
52468;SDS011;38381;53.688;10.776;2023-05-10T10:54:46;4.50;;;3.90;;
52468;SDS011;38381;53.688;10.776;2023-05-10T10:59:50;7.03;;;4.25;;
52468;SDS011;38381;53.688;10.776;2023-05-10T11:04:50;5.47;;;3.70;;
52468;SDS011;38381;53.688;10.776;2023-05-10T11:09:50;4.37;;;3.20;;
52468;SDS011;38381;53.688;10.776;2023-05-10T11:14:51;5.40;;;3.70;;
52468;SDS011;38381;53.688;10.776;2023-05-10T11:20:11;5.53;;;3.80;;
52468;SDS011;38381;53.688;10.776;2023-05-10T11:25:14;4.40;;;3.58;;
52468;SDS011;38381;53.688;10.776;2023-05-10T11:30:15;4.28;;;3.22;;
52468;SDS011;38381;53.688;10.776;2023-05-10T11:35:15;4.55;;;3.75;;
52468;SDS011;38381;53.688;10.776;2023-05-10T11:40:15;5.30;;;3.20;;
52468;SDS011;38381;53.688;10.776;2023-05-10T11:45:16;5.70;;;3.15;;
52468;SDS011;38381;53.688;10.776;2023-05-10T11:50:17;6.85;;;3.90;;
52468;SDS011;38381;53.688;10.776;2023-05-10T11:55:18;4.15;;;3.53;;
52468;SDS011;38381;53.688;10.776;2023-05-10T12:00:19;3.53;;;3.22;;
52468;SDS011;38381;53.688;10.776;2023-05-10T12:05:20;5.03;;;4.05;;
52468;SDS011;38381;53.688;10.776;2023-05-10T12:10:24;4.15;;;3.75;;
52468;SDS011;38381;53.688;10.776;2023-05-10T12:15:26;8.75;;;3.72;;
52468;SDS011;38381;53.688;10.776;2023-05-10T12:20:28;4.03;;;3.03;;
52468;SDS011;38381;53.688;10.776;2023-05-10T12:25:34;3.97;;;3.38;;
52468;SDS011;38381;53.688;10.776;2023-05-10T12:30:36;3.85;;;3.45;;
52468;SDS011;38381;53.688;10.776;2023-05-10T12:35:47;5.18;;;3.90;;
52468;SDS011;38381;53.688;10.776;2023-05-10T12:40:49;5.80;;;4.00;;
52468;SDS011;38381;53.688;10.776;2023-05-10T12:45:49;4.75;;;4.30;;
52468;SDS011;38381;53.688;10.776;2023-05-10T12:50:50;4.88;;;4.18;;
52468;SDS011;38381;53.688;10.776;2023-05-10T12:55:50;5.90;;;5.30;;
52468;SDS011;38381;53.688;10.776;2023-05-10T13:00:51;5.07;;;4.63;;
52468;SDS011;38381;53.688;10.776;2023-05-10T13:05:52;8.32;;;5.10;;
52468;SDS011;38381;53.688;10.776;2023-05-10T13:10:52;8.40;;;5.82;;
52468;SDS011;38381;53.688;10.776;2023-05-10T13:15:53;6.50;;;5.90;;
52468;SDS011;38381;53.688;10.776;2023-05-10T13:20:53;7.15;;;6.45;;
52468;SDS011;38381;53.688;10.776;2023-05-10T13:25:55;7.35;;;6.30;;
52468;SDS011;38381;53.688;10.776;2023-05-10T13:30:56;7.00;;;6.30;;
52468;SDS011;38381;53.688;10.776;2023-05-10T13:35:56;7.30;;;6.60;;
52468;SDS011;38381;53.688;10.776;2023-05-10T13:40:57;7.05;;;5.82;;
52468;SDS011;38381;53.688;10.776;2023-05-10T13:45:57;5.70;;;5.20;;
52468;SDS011;38381;53.688;10.776;2023-05-10T13:50:57;7.05;;;5.95;;
52468;SDS011;38381;53.688;10.776;2023-05-10T13:55:58;5.97;;;5.30;;
52468;SDS011;38381;53.688;10.776;2023-05-10T14:00:58;5.73;;;5.13;;
52468;SDS011;38381;53.688;10.776;2023-05-10T14:05:59;6.72;;;5.68;;
52468;SDS011;38381;53.688;10.776;2023-05-10T14:10:59;5.57;;;5.07;;
52468;SDS011;38381;53.688;10.776;2023-05-10T14:15:59;6.05;;;5.45;;
52468;SDS011;38381;53.688;10.776;2023-05-10T14:21:01;6.03;;;5.50;;
52468;SDS011;38381;53.688;10.776;2023-05-10T14:26:02;6.15;;;5.63;;
52468;SDS011;38381;53.688;10.776;2023-05-10T14:31:03;7.32;;;6.32;;
52468;SDS011;38381;53.688;10.776;2023-05-10T14:36:03;7.90;;;5.53;;
52468;SDS011;38381;53.688;10.776;2023-05-10T14:41:04;9.90;;;5.35;;
52468;SDS011;38381;53.688;10.776;2023-05-10T14:46:04;5.80;;;5.20;;
52468;SDS011;38381;53.688;10.776;2023-05-10T14:51:05;6.17;;;5.57;;
52468;SDS011;38381;53.688;10.776;2023-05-10T14:56:05;6.57;;;5.90;;
52468;SDS011;38381;53.688;10.776;2023-05-10T15:01:06;6.75;;;5.97;;
52468;SDS011;38381;53.688;10.776;2023-05-10T15:06:07;7.03;;;5.63;;
52468;SDS011;38381;53.688;10.776;2023-05-10T15:11:08;7.40;;;6.70;;
52468;SDS011;38381;53.688;10.776;2023-05-10T15:16:08;5.63;;;5.13;;
52468;SDS011;38381;53.688;10.776;2023-05-10T15:21:09;7.90;;;5.47;;
52468;SDS011;38381;53.688;10.776;2023-05-10T15:26:10;5.13;;;4.63;;
52468;SDS011;38381;53.688;10.776;2023-05-10T15:31:10;6.10;;;4.80;;
52468;SDS011;38381;53.688;10.776;2023-05-10T15:36:11;5.55;;;5.00;;
52468;SDS011;38381;53.688;10.776;2023-05-10T15:41:11;7.18;;;4.43;;
52468;SDS011;38381;53.688;10.776;2023-05-10T15:46:12;4.72;;;4.32;;
52468;SDS011;38381;53.688;10.776;2023-05-10T15:51:12;5.00;;;4.20;;
52468;SDS011;38381;53.688;10.776;2023-05-10T15:56:12;5.05;;;4.40;;
52468;SDS011;38381;53.688;10.776;2023-05-10T16:01:13;5.22;;;4.18;;
52468;SDS011;38381;53.688;10.776;2023-05-10T16:06:14;4.10;;;3.70;;
52468;SDS011;38381;53.688;10.776;2023-05-10T16:11:14;7.45;;;4.00;;
52468;SDS011;38381;53.688;10.776;2023-05-10T16:16:15;4.05;;;3.35;;
52468;SDS011;38381;53.688;10.776;2023-05-10T16:21:15;3.63;;;3.15;;
52468;SDS011;38381;53.688;10.776;2023-05-10T16:26:16;3.58;;;3.28;;
52468;SDS011;38381;53.688;10.776;2023-05-10T16:31:16;4.40;;;3.30;;
52468;SDS011;38381;53.688;10.776;2023-05-10T16:36:19;4.20;;;2.92;;
52468;SDS011;38381;53.688;10.776;2023-05-10T16:41:20;3.17;;;2.87;;
52468;SDS011;38381;53.688;10.776;2023-05-10T16:46:20;4.03;;;2.97;;
52468;SDS011;38381;53.688;10.776;2023-05-10T16:51:20;4.53;;;2.80;;
52468;SDS011;38381;53.688;10.776;2023-05-10T16:56:21;3.63;;;3.10;;
52468;SDS011;38381;53.688;10.776;2023-05-10T17:01:22;3.85;;;2.55;;
52468;SDS011;38381;53.688;10.776;2023-05-10T17:06:22;3.28;;;2.97;;
52468;SDS011;38381;53.688;10.776;2023-05-10T17:11:23;3.20;;;2.90;;
52468;SDS011;38381;53.688;10.776;2023-05-10T17:16:23;2.60;;;2.40;;
52468;SDS011;38381;53.688;10.776;2023-05-10T17:21:24;2.70;;;2.40;;
52468;SDS011;38381;53.688;10.776;2023-05-10T17:26:25;3.17;;;2.50;;
52468;SDS011;38381;53.688;10.776;2023-05-10T17:31:26;2.78;;;2.53;;
52468;SDS011;38381;53.688;10.776;2023-05-10T17:36:26;2.60;;;2.20;;
52468;SDS011;38381;53.688;10.776;2023-05-10T17:41:27;2.47;;;2.28;;
52468;SDS011;38381;53.688;10.776;2023-05-10T17:46:28;2.80;;;2.53;;
52468;SDS011;38381;53.688;10.776;2023-05-10T17:51:28;4.35;;;3.13;;
52468;SDS011;38381;53.688;10.776;2023-05-10T17:56:29;3.03;;;2.53;;
52468;SDS011;38381;53.688;10.776;2023-05-10T18:01:29;3.83;;;3.00;;
52468;SDS011;38381;53.688;10.776;2023-05-10T18:06:30;3.42;;;2.17;;
52468;SDS011;38381;53.688;10.776;2023-05-10T18:11:35;3.53;;;2.47;;
52468;SDS011;38381;53.688;10.776;2023-05-10T18:16:37;3.42;;;2.83;;
52468;SDS011;38381;53.688;10.776;2023-05-10T18:21:37;2.88;;;2.50;;
52468;SDS011;38381;53.688;10.776;2023-05-10T18:26:38;3.60;;;2.65;;
52468;SDS011;38381;53.688;10.776;2023-05-10T18:31:38;3.40;;;2.80;;
52468;SDS011;38381;53.688;10.776;2023-05-10T18:36:38;3.00;;;2.70;;
52468;SDS011;38381;53.688;10.776;2023-05-10T18:41:39;2.15;;;1.92;;
52468;SDS011;38381;53.688;10.776;2023-05-10T18:46:42;2.83;;;2.50;;
52468;SDS011;38381;53.688;10.776;2023-05-10T18:51:42;3.00;;;2.50;;
52468;SDS011;38381;53.688;10.776;2023-05-10T18:56:43;5.78;;;2.60;;
52468;SDS011;38381;53.688;10.776;2023-05-10T19:01:44;3.22;;;2.65;;
52468;SDS011;38381;53.688;10.776;2023-05-10T19:06:44;3.97;;;2.80;;
52468;SDS011;38381;53.688;10.776;2023-05-10T19:11:45;3.77;;;3.07;;
52468;SDS011;38381;53.688;10.776;2023-05-10T19:16:45;2.72;;;2.28;;
52468;SDS011;38381;53.688;10.776;2023-05-10T19:21:46;2.88;;;2.40;;
52468;SDS011;38381;53.688;10.776;2023-05-10T19:26:46;2.83;;;2.50;;
52468;SDS011;38381;53.688;10.776;2023-05-10T19:31:46;3.13;;;2.22;;
52468;SDS011;38381;53.688;10.776;2023-05-10T19:36:48;2.60;;;2.20;;
52468;SDS011;38381;53.688;10.776;2023-05-10T19:41:49;2.88;;;2.08;;
52468;SDS011;38381;53.688;10.776;2023-05-10T19:46:49;2.45;;;2.25;;
52468;SDS011;38381;53.688;10.776;2023-05-10T19:51:50;3.80;;;2.97;;
52468;SDS011;38381;53.688;10.776;2023-05-10T19:56:50;3.63;;;3.15;;
52468;SDS011;38381;53.688;10.776;2023-05-10T20:01:51;4.45;;;4.05;;
52468;SDS011;38381;53.688;10.776;2023-05-10T20:06:51;3.33;;;3.03;;
52468;SDS011;38381;53.688;10.776;2023-05-10T20:11:52;3.25;;;2.95;;
52468;SDS011;38381;53.688;10.776;2023-05-10T20:16:53;2.92;;;2.50;;
52468;SDS011;38381;53.688;10.776;2023-05-10T20:21:53;3.20;;;2.90;;
52468;SDS011;38381;53.688;10.776;2023-05-10T20:26:56;3.50;;;2.83;;
52468;SDS011;38381;53.688;10.776;2023-05-10T20:31:57;3.20;;;2.58;;
52468;SDS011;38381;53.688;10.776;2023-05-10T20:36:58;3.10;;;2.80;;
52468;SDS011;38381;53.688;10.776;2023-05-10T20:41:58;3.90;;;3.40;;
52468;SDS011;38381;53.688;10.776;2023-05-10T20:46:59;4.70;;;3.53;;
52468;SDS011;38381;53.688;10.776;2023-05-10T20:52:00;3.47;;;3.17;;
52468;SDS011;38381;53.688;10.776;2023-05-10T20:57:00;3.85;;;3.45;;
52468;SDS011;38381;53.688;10.776;2023-05-10T21:02:04;4.72;;;4.32;;
52468;SDS011;38381;53.688;10.776;2023-05-10T21:07:04;6.28;;;5.68;;
52468;SDS011;38381;53.688;10.776;2023-05-10T21:12:04;6.82;;;5.85;;
52468;SDS011;38381;53.688;10.776;2023-05-10T21:17:05;6.07;;;5.47;;
52468;SDS011;38381;53.688;10.776;2023-05-10T21:22:06;8.63;;;7.73;;
52468;SDS011;38381;53.688;10.776;2023-05-10T21:27:06;8.05;;;7.25;;
52468;SDS011;38381;53.688;10.776;2023-05-10T21:32:08;10.23;;;9.07;;
52468;SDS011;38381;53.688;10.776;2023-05-10T21:37:08;8.95;;;8.05;;
52468;SDS011;38381;53.688;10.776;2023-05-10T21:42:08;8.27;;;7.43;;
52468;SDS011;38381;53.688;10.776;2023-05-10T21:47:09;8.32;;;7.28;;
52468;SDS011;38381;53.688;10.776;2023-05-10T21:52:09;8.90;;;8.02;;
52468;SDS011;38381;53.688;10.776;2023-05-10T21:57:10;8.48;;;7.63;;
52468;SDS011;38381;53.688;10.776;2023-05-10T22:02:11;8.18;;;7.38;;
52468;SDS011;38381;53.688;10.776;2023-05-10T22:07:11;9.55;;;8.57;;
52468;SDS011;38381;53.688;10.776;2023-05-10T22:12:12;11.77;;;10.63;;
52468;SDS011;38381;53.688;10.776;2023-05-10T22:17:12;14.33;;;12.93;;
52468;SDS011;38381;53.688;10.776;2023-05-10T22:22:13;13.63;;;12.40;;
52468;SDS011;38381;53.688;10.776;2023-05-10T22:27:13;12.85;;;11.60;;
52468;SDS011;38381;53.688;10.776;2023-05-10T22:32:14;12.63;;;11.32;;
52468;SDS011;38381;53.688;10.776;2023-05-10T22:37:14;12.80;;;11.52;;
52468;SDS011;38381;53.688;10.776;2023-05-10T22:42:16;12.32;;;11.10;;
52468;SDS011;38381;53.688;10.776;2023-05-10T22:47:17;12.52;;;11.15;;
52468;SDS011;38381;53.688;10.776;2023-05-10T22:52:17;13.38;;;11.63;;
52468;SDS011;38381;53.688;10.776;2023-05-10T22:57:18;14.17;;;12.77;;
52468;SDS011;38381;53.688;10.776;2023-05-10T23:02:18;13.48;;;12.20;;
52468;SDS011;38381;53.688;10.776;2023-05-10T23:07:19;14.82;;;11.93;;
52468;SDS011;38381;53.688;10.776;2023-05-10T23:12:19;12.93;;;11.63;;
52468;SDS011;38381;53.688;10.776;2023-05-10T23:17:20;13.48;;;11.30;;
52468;SDS011;38381;53.688;10.776;2023-05-10T23:22:20;15.10;;;12.03;;
52468;SDS011;38381;53.688;10.776;2023-05-10T23:27:20;15.80;;;12.15;;
52468;SDS011;38381;53.688;10.776;2023-05-10T23:32:21;12.90;;;11.50;;
52468;SDS011;38381;53.688;10.776;2023-05-10T23:37:22;12.38;;;11.13;;
52468;SDS011;38381;53.688;10.776;2023-05-10T23:42:22;15.23;;;12.18;;
52468;SDS011;38381;53.688;10.776;2023-05-10T23:47:23;14.30;;;11.68;;
52468;SDS011;38381;53.688;10.776;2023-05-10T23:52:23;12.20;;;11.00;;
52468;SDS011;38381;53.688;10.776;2023-05-10T23:57:24;14.30;;;12.35;;
